Warning: Javascript must be enabled to use all the features on this page!


Page Loading - Please Wait...

* We've detected you're using a mobile device. Find our Next Generation Station Page here.
Click to hideNews Bulletins
  • Explore the NEW USGS National Water Dashboard interactive map to access real-time water data from over 13,500 stations nationwide.
  • Full News RSS icon
  • USGS has scheduled planned maintenance to our IT infrastructure, starting Tuesday, June 28, 2022, from 8:00-10:00am Eastern Daylight Time (EDT). During the maintenance period, there will be a short interruption in the availability of the most recent time-series data. Any backlog will be made available following conclusion of the scheduled maintenance.

Peak Streamflow for the Nation

USGS 16296500 Kahana Str at alt 30 ft nr Kahana, Oahu, HI

Honolulu County, Hawaii
Hydrologic Unit Code 20060000
Latitude  21°32'26.2", Longitude 157°52'57.2" NAD83
Drainage area 3.73  square miles
Gage datum 30 feet above LMSL
Output formats
Table
Graph
Tab-separated file
peakfq (watstore) format
Reselect output format
Water
Year
Date Gage
Height
(feet)
Stream-
flow
(cfs)
1960 1960-05-12 4.73 1,580
1961 1960-10-17 5.04 1,810
1962 1961-11-01 6.69 3,510
1963 1963-04-15 8.10 5,430
1964 1964-07-25 6.29 3,060
1965 1965-02-04 7.18 4,120
1966 1965-11-14 6.33 3,110
1967 1967-08-09 6.91 3,780
1968 1967-12-08 7.16 4,110
1969 1969-02-01 7.54 4,650
1970 1970-01-27 6.18 2,940
1971 1970-11-25 6.91 3,780
1972 1972-04-17 6.87 3,730
1973 1973-09-20 4.38 1,270
1974 1974-07-17 7.60 4,730
1975 1974-11-17 5.45 2,200
1976 1975-11-26 4.89 1,690
1977 1977-04-19 6.43 3,210
1978 1978-06-28 6.22 2,980
1979 1979-02-10 6.24 3,000
1980 1980-01-08 6.64 3,460
1981 1981-04-14 6.76 3,600
1982 1981-10-28 7.72 4,880
1983 1982-12-23 5.88 2,620
1984 1984-04-19 4.48 1,340
1985 1984-11-27 7.30 4,310
1986 1986-05-10 7.30 4,310
1987 1987-07-22 7.47 4,550
1988 1987-12-31 7.07 3,990
1989 1989-04-04 6.84 3,700
1990 1990-09-20 5.83 2,570
1991 1991-03-20 8.60 6,250
1992 1991-10-16 5.85 2,590
1993 1993-09-23 7.94 5,210
1994 1994-02-12 7.84 5,070
1995 1995-08-23 6.32 3,100
1996 1996-01-25 6.50 3,290
1997 1997-01-03 5.70 2,460
1998 1997-10-08 6.11 2,860
1999 1999-01-08 5.37 2,120
2000 2000-08-20 5.48 2,230
2001 2001-02-09 7.51 4,620
2002 2002-05-06 9.39 7,580
2003 2003-07-26 5.32 2,080
2004 2003-11-29 7.83 5,080
2005 2004-10-26 7.64 4,800
2006 2006-03-19 7.13 4,110
2007 2007-09-15 6.04 2,810
2008 2007-11-04 6.33 3,130
2009 2008-12-11 9.94 8,530
2010 2009-11-13 7.60 4,750
2011 2011-06-04 11.32 11,100
2012 2012-03-09 8.70 6,410
2013 2013-04-24 6.76 3,640
2014 2014-07-20 11.10 10,700
2015 2015-09-11 7.19 4,190
2016 2016-07-24 8.06 5,410
2017 2017-02-11 4.83 1,650
2018 2018-02-25 8.05 5,400
2019 2018-12-28 7.56 4,690
2020 2020-03-29 7.56 4,690